Latest Weather Observations for Toowoomba

IDQ60901

Issued at 6:22 pm EST Monday 26 January 2015 (issued every 10 minutes, with the page automatically refreshed every 10 minutes)

About weather observations | Map of Brisbane area stations | Latest observations for Brisbane area | Other Formats
Station Details ID: 041529 Name: TOOWOOMBA AIRPORT Lat: -27.54 Lon: 151.91 Height: 640.9 m
Data from the previous 72 hours. | See also: Recent months at Toowoomba
Date/Time
EST
Tmp

°C
App
Tmp
°C
Dew
Point
°C
Rel
Hum
%
Delta-T

°C
Wind Press
QNH
hPa
Press
MSL
hPa
Rain
since
9 am
mm
Dir
 
Spd
km/h
Gust
km/h
Spd
kts
Gust
kts
26/06:00pm 21.8 19.4 20.4 92 0.9 E 33 46 18 25 1010.9 1007.1 0.4
26/05:30pm 23.9 24.0 21.2 85 1.8 E 22 32 12 17 1010.6 1006.8 0.2
26/05:00pm 24.6 24.0 21.3 82 2.2 E 26 35 14 19 1010.0 1006.3 0.0
26/04:30pm 25.2 25.3 21.1 78 2.8 E 22 30 12 16 1009.1 1005.3 0.0
26/04:00pm 24.9 21.9 19.0 69 3.9 E 33 43 18 23 1008.4 1004.7 0.0
26/03:30pm 26.4 23.2 19.5 66 4.6 ESE 35 50 19 27 1008.7 1004.9 0.0
26/03:00pm 29.2 28.6 21.2 62 5.5 ENE 26 33 14 18 1008.9 1005.1 0.0
26/02:30pm 28.6 27.3 20.6 62 5.4 ENE 28 37 15 20 1008.9 1005.1 0.0
26/02:00pm 29.0 29.5 21.2 62 5.3 ENE 20 30 11 16 1008.8 1005.0 0.0
26/01:30pm 28.4 28.0 19.3 57 6.1 ENE 20 28 11 15 1009.1 1005.3 0.0
26/01:00pm 30.7 30.3 20.9 56 6.7 E 24 32 13 17 1009.4 1005.6 0.0
26/12:30pm 30.2 30.1 19.9 54 6.9 E 20 30 11 16 1009.7 1006.0 0.0
26/12:00pm 30.1 30.5 20.6 56 6.5 E 19 26 10 14 1010.1 1006.4 0.0
26/11:30am 29.5 30.4 20.1 57 6.3 E 15 24 8 13 1010.6 1006.8 0.0
26/11:00am 30.3 30.8 18.4 49 7.9 ENE 13 19 7 10 1010.9 1007.1 0.0
26/10:30am 29.4 30.9 19.7 56 6.5 NNE 11 19 6 10 1011.2 1007.5 0.0
26/10:00am 29.2 31.5 21.4 63 5.3 ENE 11 17 6 9 1011.3 1007.6 0.0
26/09:30am 28.8 31.5 22.1 67 4.6 ENE 11 17 6 9 1011.4 1007.7 0.0
26/09:00am 27.8 29.8 21.6 69 4.2 E 13 17 7 9 1011.5 1007.8 0.0
26/08:30am 27.3 29.6 22.0 73 3.6 E 13 17 7 9 1011.5 1007.8 0.0
26/08:00am 26.9 29.1 21.2 71 3.9 ENE 11 17 6 9 1011.5 1007.8 0.0
26/07:30am 26.5 29.6 21.5 74 3.4 ENE 7 11 4 6 1011.4 1007.7 0.0
26/07:00am 25.6 28.7 22.1 81 2.4 E 9 13 5 7 1011.4 1007.7 0.0
26/06:30am 24.2 27.5 21.9 87 1.6 E 7 11 4 6 1011.3 1007.6 0.0
26/06:07am 22.9 25.8 21.7 93 0.8 E 9 11 5 6 1011.0 1007.3 0.0
26/06:00am 22.6 25.5 21.8 95 0.5 E 9 11 5 6 1010.9 1007.1 0.0
26/05:40am 21.9 24.2 21.4 97 0.3 E 11 13 6 7 1010.5 1006.7 0.0
26/05:30am 21.8 23.8 21.5 98 0.2 E 13 15 7 8 1010.4 1006.6 0.0
26/05:00am 21.8 23.3 21.3 97 0.3 E 15 17 8 9 1010.1 1006.4 0.0
26/04:46am 21.9 23.4 21.2 96 0.5 E 15 17 8 9 1010.0 1006.3 0.0
26/04:30am 21.9 23.2 20.9 94 0.7 E 15 17 8 9 1010.0 1006.3 0.0
26/04:00am 21.8 22.5 20.4 92 0.9 E 17 19 9 10 1009.9 1006.2 0.0
26/03:30am 22.1 22.7 20.2 89 1.3 E 17 20 9 11 1009.7 1006.0 0.0
26/03:00am 22.3 23.1 19.8 86 1.6 E 15 19 8 10 1009.7 1006.0 0.0
26/02:30am 22.2 22.8 19.4 84 1.8 ENE 15 20 8 11 1009.7 1006.0 0.0
26/02:00am 22.3 22.5 19.3 83 2.0 ENE 17 20 9 11 1009.6 1005.9 0.0
26/01:30am 22.0 21.0 17.6 76 2.8 E 19 24 10 13 1009.7 1006.0 0.0
26/01:00am 22.3 21.3 18.9 81 2.2 E 22 30 12 16 1010.0 1006.3 0.0
26/12:30am 22.9 21.9 19.7 82 2.1 E 24 32 13 17 1010.1 1006.4 0.0
26/12:00am 23.0 22.2 20.9 88 1.4 E 26 33 14 18 1010.5 1006.7 0.0
 
Date/Time
EST
Tmp

°C
App
Tmp
°C
Dew
Point
°C
Rel
Hum
%
Delta-T

°C
Wind Press
QNH
hPa
Press
MSL
hPa
Rain
since
9 am
mm
Dir
 
Spd
km/h
Gust
km/h
Spd
kts
Gust
kts
25/11:30pm 23.3 21.9 21.2 88 1.4 E 30 37 16 20 1010.9 1007.1 0.0
25/11:00pm 24.1 23.1 21.2 84 2.0 E 28 35 15 19 1010.8 1007.0 0.0
25/10:30pm 24.5 24.3 21.2 82 2.2 E 24 32 13 17 1010.4 1006.6 0.0
25/10:00pm 25.0 24.8 19.8 73 3.4 E 20 24 11 13 1010.5 1006.7 0.0
25/09:30pm 25.8 27.0 18.2 63 4.9 E 9 9 5 5 1010.1 1006.4 0.0
25/09:00pm 25.9 27.1 18.3 63 4.9 E 9 11 5 6 1010.3 1006.5 0.0
25/08:30pm 26.6 27.8 18.2 60 5.5 E 9 11 5 6 1009.9 1006.2 0.0
25/08:00pm 27.7 29.3 17.8 54 6.4 E 6 7 3 4 1009.5 1005.8 0.0
25/07:30pm 28.4 30.5 17.3 51 7.2 ESE 2 7 1 4 1009.4 1005.6 0.0
25/07:00pm 28.9 30.0 16.5 47 7.9 SSW 6 9 3 5 1009.0 1005.2 0.0
25/06:30pm 29.9 30.5 16.7 45 8.5 SSW 9 15 5 8 1008.4 1004.7 0.0
25/06:00pm 30.7 30.5 16.7 43 9.0 SSW 13 20 7 11 1008.1 1004.4 0.0
25/05:30pm 31.1 29.7 15.5 39 9.9 SSW 17 24 9 13 1007.8 1004.0 0.0
25/05:00pm 31.6 30.4 16.0 39 10.0 SW 17 33 9 18 1007.6 1003.8 0.0
25/04:30pm 31.4 30.4 16.6 41 9.5 SW 17 26 9 14 1007.9 1004.1 0.0
25/04:00pm 31.6 31.5 17.9 44 9.0 SW 15 24 8 13 1008.0 1004.2 0.0
25/03:30pm 31.6 30.3 16.7 40 9.6 SW 19 28 10 15 1008.3 1004.6 0.0
25/03:00pm 31.3 30.1 17.6 44 9.0 SW 20 30 11 16 1008.6 1004.8 0.0
25/02:30pm 31.0 30.1 17.7 45 8.7 WSW 19 32 10 17 1008.8 1005.0 0.0
25/02:00pm 31.0 30.4 18.4 47 8.3 W 19 28 10 15 1009.0 1005.2 0.0
25/01:30pm 29.6 29.2 18.1 50 7.5 SW 17 24 9 13 1009.0 1005.2 0.0
25/01:00pm 30.0 29.9 18.8 51 7.4 W 17 24 9 13 1009.1 1005.3 0.0
25/12:30pm 29.7 29.0 18.2 50 7.5 WSW 19 28 10 15 1009.4 1005.6 0.0
25/12:00pm 29.7 28.7 18.8 52 7.2 WNW 22 30 12 16 1009.7 1006.0 0.0
25/11:30am 29.4 28.6 18.5 52 7.2 W 20 30 11 16 1009.9 1006.2 0.0
25/11:00am 28.6 27.9 18.7 55 6.5 W 20 30 11 16 1010.1 1006.4 0.0
25/10:30am 28.0 27.7 19.5 60 5.7 W 20 30 11 16 1010.5 1006.7 0.0
25/10:00am 27.9 28.2 20.5 64 5.0 WNW 19 28 10 15 1010.7 1006.9 0.0
25/09:30am 26.7 27.0 20.3 68 4.3 NW 19 28 10 15 1010.8 1007.0 0.0
25/09:00am 25.9 26.9 21.1 75 3.2 NW 17 26 9 14 1011.0 1007.3 0.0
25/08:30am 24.8 25.0 20.5 77 2.9 NW 20 28 11 15 1011.3 1007.6 0.0
25/08:00am 24.7 25.3 21.0 80 2.5 NW 19 28 10 15 1011.3 1007.6 0.0
25/07:30am 23.8 25.5 20.9 84 1.9 NW 13 19 7 10 1011.3 1007.6 0.0
25/07:00am 22.5 24.4 20.6 89 1.3 NNW 11 15 6 8 1011.0 1007.3 0.0
25/06:30am 21.6 22.9 20.1 91 1.0 N 13 17 7 9 1010.8 1007.0 0.0
25/06:00am 21.0 22.2 20.0 94 0.7 N 13 17 7 9 1010.5 1006.7 0.0
25/05:30am 20.8 22.3 19.8 94 0.7 N 11 17 6 9 1010.3 1006.5 0.0
25/05:00am 20.6 22.4 19.6 94 0.7 N 9 13 5 7 1010.0 1006.3 0.0
25/04:30am 20.6 22.8 19.6 94 0.7 NNW 7 11 4 6 1010.0 1006.3 0.0
25/04:00am 20.8 21.5 19.6 93 0.8 N 15 19 8 10 1009.8 1006.1 0.0
25/03:30am 20.9 22.0 19.6 92 0.8 N 13 17 7 9 1009.8 1006.1 0.0
25/03:00am 20.9 21.5 19.4 91 1.0 N 15 17 8 9 1009.8 1006.1 0.0
25/02:30am 20.8 21.7 19.3 91 1.0 N 13 19 7 10 1009.8 1006.1 0.0
25/02:00am 20.9 22.1 19.0 89 1.2 NNE 11 15 6 8 1009.9 1006.2 0.0
25/01:30am 20.9 22.4 19.0 89 1.2 NE 9 13 5 7 1010.0 1006.3 0.0
25/01:00am 20.2 22.1 19.0 93 0.8 ENE 7 9 4 5 1010.0 1006.3 0.0
25/12:30am 20.1 21.6 18.8 92 0.8 ENE 9 11 5 6 1010.3 1006.5 0.0
25/12:00am 20.4 22.0 19.1 92 0.8 E 9 13 5 7 1010.5 1006.7 0.0
 
Date/Time
EST
Tmp

°C
App
Tmp
°C
Dew
Point
°C
Rel
Hum
%
Delta-T

°C
Wind Press
QNH
hPa
Press
MSL
hPa
Rain
since
9 am
mm
Dir
 
Spd
km/h
Gust
km/h
Spd
kts
Gust
kts
24/11:30pm 20.6 22.2 19.1 91 1.0 ENE 9 11 5 6 1010.7 1006.9 0.0
24/11:00pm 21.0 22.3 19.3 90 1.1 E 11 13 6 7 1010.9 1007.1 0.0
24/10:30pm 21.5 22.8 19.4 88 1.4 ENE 11 13 6 7 1011.2 1007.5 0.0
24/10:00pm 21.8 23.1 19.4 86 1.6 ENE 11 13 6 7 1011.2 1007.5 0.0
24/09:30pm 22.4 24.1 19.4 83 2.0 ENE 9 15 5 8 1011.1 1007.4 0.0
24/09:00pm 22.2 23.5 19.4 84 1.8 E 11 15 6 8 1010.6 1006.8 0.0
24/08:30pm 22.2 23.1 19.2 83 2.0 E 13 17 7 9 1010.3 1006.5 0.0
24/08:00pm 22.4 23.6 19.0 81 2.2 E 11 17 6 9 1010.0 1006.3 0.0
24/07:30pm 22.7 23.4 18.9 79 2.5 E 13 19 7 10 1009.7 1006.0 0.0
24/07:00pm 22.8 22.8 19.0 79 2.5 E 17 24 9 13 1009.3 1005.5 0.0
24/06:30pm 22.9 23.2 19.7 82 2.1 E 17 22 9 12 1009.2 1005.4 0.0
24/06:00pm 23.3 22.9 19.0 77 2.8 E 19 22 10 12 1009.1 1005.3 0.0
24/05:30pm 24.2 23.1 17.7 67 4.2 E 20 24 11 13 1008.8 1005.0 0.0
24/05:00pm 25.5 24.7 17.9 63 4.9 ENE 19 22 10 12 1008.7 1004.9 0.0
24/04:30pm 25.4 25.7 18.8 67 4.3 ESE 15 22 8 12 1008.8 1005.0 0.0
24/04:00pm 24.2 23.9 19.1 73 3.3 SE 19 24 10 13 1008.9 1005.1 0.0
24/03:30pm 25.3 25.5 18.5 66 4.4 NE 15 19 8 10 1009.0 1005.2 0.0
24/03:00pm 25.9 26.5 18.6 64 4.8 ENE 13 20 7 11 1009.2 1005.4 0.0
24/02:30pm 25.5 26.6 17.9 63 4.9 E 9 17 5 9 1009.4 1005.6 0.0
24/02:00pm 25.0 25.8 18.2 66 4.4 ENE 11 20 6 11 1009.6 1005.9 0.0
24/01:30pm 25.5 25.3 17.7 62 5.0 E 15 22 8 12 1009.8 1006.1 0.0
24/01:00pm 24.5 24.2 18.2 68 4.1 ENE 17 20 9 11 1010.0 1006.3 0.0
24/12:30pm 24.7 24.5 18.4 68 4.1 ENE 17 22 9 12 1010.3 1006.5 0.0
24/12:00pm 24.3 24.3 18.9 72 3.5 E 17 22 9 12 1010.5 1006.7 0.0
24/11:30am 23.4 23.4 18.9 76 2.9 ENE 17 22 9 12 1010.7 1006.9 0.0
24/11:00am 22.8 23.2 18.1 75 3.0 ENE 13 19 7 10 1010.9 1007.1 0.0
24/10:30am 22.5 22.2 18.3 77 2.7 E 17 24 9 13 1010.9 1007.1 0.0
24/10:00am 22.8 23.2 18.1 75 3.0 E 13 22 7 12 1011.0 1007.3 0.0
24/09:30am 22.6 22.5 17.9 75 3.0 ESE 15 28 8 15 1010.8 1007.0 0.0
24/09:00am 23.0 22.2 18.5 76 2.9 ESE 20 30 11 16 1010.8 1007.0 14.8
24/08:30am 22.6 20.0 17.9 75 3.0 ESE 28 35 15 19 1010.4 1006.6 14.8
24/08:00am 20.7 19.3 17.1 80 2.3 ESE 20 26 11 14 1010.4 1006.6 14.8
24/07:30am 20.4 19.8 17.6 84 1.8 E 17 24 9 13 1010.4 1006.6 14.8
24/07:00am 19.5 18.7 17.1 86 1.5 E 17 22 9 12 1010.1 1006.4 14.8
24/06:30am 19.0 18.5 16.8 87 1.4 E 15 20 8 11 1010.0 1006.3 14.8
24/06:00am 18.5 17.1 16.5 88 1.2 E 19 22 10 12 1009.8 1006.1 14.8
24/05:30am 18.4 17.8 16.6 89 1.1 E 15 17 8 9 1009.5 1005.8 14.8
24/05:00am 17.6 18.0 16.3 92 0.8 ESE 9 11 5 6 1009.1 1005.3 14.8
24/04:30am 17.4 18.2 15.9 91 0.9 E 6 13 3 7 1008.8 1005.0 14.8
24/04:00am 17.5 16.2 15.8 90 1.0 E 17 19 9 10 1008.1 1004.4 14.8
24/03:30am 17.9 17.0 15.9 88 1.2 ESE 15 19 8 10 1008.1 1004.4 14.8
24/03:00am 18.1 18.9 16.4 90 1.0 ESE 7 13 4 7 1008.2 1004.5 14.8
24/02:30am 17.8 18.2 16.3 91 0.9 S 9 9 5 5 1008.3 1004.6 14.8
24/02:00am 18.2 20.4 16.4 89 1.1 CALM 0 7 0 4 1008.8 1005.0 14.8
24/01:33am 18.2 18.9 16.2 88 1.2 ESE 7 9 4 5 1008.8 1005.0 14.8
24/01:30am 18.1 18.8 16.1 88 1.2 ESE 7 9 4 5 1008.9 1005.1 14.8
24/01:17am 17.9 17.8 15.9 88 1.2 ESE 11 15 6 8 1009.0 1005.2 14.8
24/01:00am 17.8 17.0 16.1 90 1.0 ESE 15 17 8 9 1009.0 1005.2 14.8
24/12:30am 17.8 17.4 16.3 91 0.9 ESE 13 15 7 8 1009.5 1005.8 14.8
24/12:00am 17.6 17.9 16.1 91 0.9 SE 9 13 5 7 1009.9 1006.2 14.8
 
Date/Time
EST
Tmp

°C
App
Tmp
°C
Dew
Point
°C
Rel
Hum
%
Delta-T

°C
Wind Press
QNH
hPa
Press
MSL
hPa
Rain
since
9 am
mm
Dir
 
Spd
km/h
Gust
km/h
Spd
kts
Gust
kts
23/11:30pm 17.2 16.5 16.4 95 0.5 ESE 15 20 8 11 1009.8 1006.1 14.8
23/11:00pm 17.1 16.4 16.3 95 0.5 E 15 17 8 9 1010.4 1006.6 14.8
23/10:30pm 17.1 16.7 16.3 95 0.5 E 13 19 7 10 1010.5 1006.7 14.8
23/10:00pm 16.9 15.7 16.1 95 0.5 ENE 17 22 9 12 1010.4 1006.6 14.8
23/09:30pm 17.0 15.3 16.2 95 0.5 E 20 30 11 16 1010.1 1006.4 14.8
23/09:00pm 17.2 14.7 16.2 94 0.6 ESE 24 33 13 18 1009.5 1005.8 14.8
23/08:30pm 17.1 13.5 16.3 95 0.5 E 30 43 16 23 1008.9 1005.1 14.8
23/08:27pm 17.1 13.1 16.3 95 0.5 E 32 43 17 23 1008.9 1005.1 14.8
23/08:06pm 17.3 13.8 16.5 95 0.5 E 30 43 16 23 1009.0 1005.2 14.8
23/08:00pm 17.3 13.8 16.5 95 0.5 E 30 39 16 21 1009.0 1005.2 14.8
23/07:30pm 17.4 12.9 16.4 94 0.6 ESE 35 44 19 24 1008.9 1005.1 14.8
23/07:00pm 17.6 13.1 16.5 93 0.7 E 35 43 19 23 1008.9 1005.1 14.8
23/06:30pm 17.9 12.7 16.6 92 0.8 E 39 50 21 27 1008.8 1005.0 14.8

Latest Capital City Observations: Canberra | Sydney | Melbourne | Brisbane | Adelaide | Perth | Hobart | Darwin

Other Formats:

Comma delimited format used in spreadsheet applications
http://www.bom.gov.au/fwo/IDQ60901/IDQ60901.95551.axf

JavaScript Object Notation format (JSON) in row-major order
http://www.bom.gov.au/fwo/IDQ60901/IDQ60901.95551.json